Time;durP1;ratioP1;P1;durP2;ratioP2;P2;SDS_P1;SDS_P2;PMS_P1;PMS_P2;Temp;Humidity;BMP_temperature;BMP_pressure;BME280_temperature;BME280_humidity;BME280_pressure;Samples;Min_cycle;Max_cycle;Signal;HPM_P1;HPM_P2
2023/03/17 00:01:53;;;;;;;;;;;;;;;8.44;59.94;100633.91;5265716;28;20029;-64
2023/03/17 00:04:26;;;;;;;6.38;3.60;;;;;;;8.39;60.89;100643.44;5265291;28;20275;-65
2023/03/17 00:06:58;;;;;;;5.68;3.13;;;;;;;8.34;60.65;100648.66;5264779;28;20080;-64
2023/03/17 00:09:30;;;;;;;7.32;3.13;;;;;;;8.32;60.94;100645.22;5265686;28;20029;-66
2023/03/17 00:12:01;;;;;;;5.43;2.73;;;;;;;8.28;61.29;100638.28;5265074;28;20036;-66
2023/03/17 00:14:32;;;;;;;8.00;2.80;;;;;;;8.21;61.24;100636.59;5265511;28;20376;-65
2023/03/17 00:17:04;;;;;;;8.97;3.73;;;;;;;8.17;61.47;100642.69;5247458;28;20060;-65
2023/03/17 00:19:35;;;;;;;7.00;2.80;;;;;;;8.18;61.54;100639.22;5265092;28;20051;-65
2023/03/17 00:22:16;;;;;;;6.40;3.17;;;;;;;8.10;62.09;100626.28;5264989;28;20115;-65
2023/03/17 00:24:47;;;;;;;7.78;3.63;;;;;;;8.04;62.27;100609.00;5264950;28;20060;-65
2023/03/17 00:27:19;;;;;;;5.77;3.50;;;;;;;8.01;62.21;100598.63;5264865;28;20083;-65
2023/03/17 00:29:50;;;;;;;6.70;3.50;;;;;;;7.98;62.45;100597.78;5264103;28;20041;-65
2023/03/17 00:32:22;;;;;;;5.60;3.17;;;;;;;7.95;62.80;100603.88;5264410;28;20040;-65
2023/03/17 00:34:53;;;;;;;6.17;2.50;;;;;;;7.88;63.13;100599.56;5264984;28;20056;-65
2023/03/17 00:37:24;;;;;;;8.07;3.70;;;;;;;7.87;63.41;100605.59;5246803;28;20029;-65
2023/03/17 00:39:56;;;;;;;6.43;3.27;;;;;;;7.81;63.94;100608.25;5264640;28;20035;-65
2023/03/17 00:42:28;;;;;;;7.33;3.07;;;;;;;7.82;64.09;100608.25;5264529;28;20058;-63
2023/03/17 00:45:00;;;;;;;6.82;3.22;;;;;;;7.79;64.66;100597.88;5264382;28;20463;-64
2023/03/17 00:47:31;;;;;;;5.50;2.88;;;;;;;7.76;64.63;100591.81;5264336;28;20056;-63
2023/03/17 00:50:04;;;;;;;5.93;3.10;;;;;;;7.76;64.86;100599.59;5264432;28;20033;-64
2023/03/17 00:52:35;;;;;;;5.75;2.83;;;;;;;7.70;65.00;100595.31;5264967;28;20049;-64
2023/03/17 00:55:08;;;;;;;9.90;3.43;;;;;;;7.64;65.27;100587.56;5264217;28;20052;-64
2023/03/17 00:57:41;;;;;;;6.85;3.25;;;;;;;7.59;65.42;100595.34;5264211;28;20025;-64
2023/03/17 01:00:21;;;;;;;8.00;3.00;;;;;;;7.61;65.66;100600.53;5264623;28;20453;-65
2023/03/17 01:02:55;;;;;;;6.57;3.08;;;;;;;7.57;65.87;100597.09;5264166;28;20036;-63
2023/03/17 01:05:27;;;;;;;6.05;3.05;;;;;;;7.51;66.11;100591.91;5263992;28;20045;-65
2023/03/17 01:07:58;;;;;;;5.25;2.88;;;;;;;7.47;66.41;100593.66;5263984;28;20094;-65
2023/03/17 01:10:30;;;;;;;5.70;3.27;;;;;;;7.44;66.82;100598.00;5264051;28;20491;-65
2023/03/17 01:13:03;;;;;;;6.10;2.80;;;;;;;7.35;66.95;100585.06;5264147;28;20029;-65
2023/03/17 01:15:35;;;;;;;4.28;2.63;;;;;;;7.32;67.20;100591.09;5263760;28;20064;-65
2023/03/17 01:18:10;;;;;;;7.03;3.30;;;;;;;7.19;67.87;100587.69;5263817;28;20134;-64
2023/03/17 01:20:42;;;;;;;5.70;3.00;;;;;;;7.15;67.98;100583.38;5263963;28;20270;-65
2023/03/17 01:23:14;;;;;;;5.07;3.13;;;;;;;7.09;68.13;100580.78;5264474;28;20102;-65
2023/03/17 01:25:45;;;;;;;9.90;3.70;;;;;;;6.97;68.52;100573.03;5263673;28;20080;-64
2023/03/17 01:28:18;;;;;;;5.10;2.90;;;;;;;6.98;68.56;100579.94;5263934;28;20484;-66
2023/03/17 01:30:50;;;;;;;4.97;2.65;;;;;;;6.94;68.86;100577.34;5263822;28;20029;-64
2023/03/17 01:33:21;;;;;;;5.33;2.90;;;;;;;6.88;69.36;100577.34;5264209;28;20040;-65
2023/03/17 01:35:52;;;;;;;6.87;3.60;;;;;;;6.95;69.12;100580.81;5263184;28;20029;-64
2023/03/17 01:38:24;;;;;;;10.13;3.27;;;;;;;6.93;68.98;100567.00;5263274;28;20033;-65
2023/03/17 01:40:55;;;;;;;6.27;2.73;;;;;;;6.94;68.78;100568.72;5263183;28;20181;-64
2023/03/17 01:43:29;;;;;;;7.63;2.73;;;;;;;6.90;69.13;100556.63;5262832;28;20044;-64
2023/03/17 01:46:23;;;;;;;9.15;4.38;;;;;;;6.89;68.78;100560.06;5263368;28;20509;-65
2023/03/17 01:49:22;;;;;;;5.35;3.13;;;;;;;6.89;68.96;100573.03;5263777;28;20119;-65
2023/03/17 01:52:06;;;;;;;7.72;3.33;;;;;;;6.84;69.28;100567.00;5263091;28;20084;-65
2023/03/17 01:54:45;;;;;;;7.35;3.17;;;;;;;6.80;69.00;100560.09;5263354;28;20032;-65
2023/03/17 01:57:25;;;;;;;6.18;2.90;;;;;;;6.80;69.44;100558.38;5263425;28;20040;-65
2023/03/17 02:00:15;;;;;;;7.95;3.65;;;;;;;6.82;68.84;100559.22;5263409;28;20468;-65
2023/03/17 02:02:49;;;;;;;7.32;3.20;;;;;;;6.81;69.30;100549.75;5263093;28;20071;-65
2023/03/17 02:05:27;;;;;;;5.68;3.35;;;;;;;6.79;69.10;100550.59;5262931;28;20036;-65
2023/03/17 02:07:59;;;;;;;6.50;3.20;;;;;;;6.79;69.39;100546.28;5263018;28;20461;-65
2023/03/17 02:10:30;;;;;;;8.20;3.23;;;;;;;6.80;69.41;100541.97;5262880;28;20037;-65
2023/03/17 02:13:04;;;;;;;9.70;4.13;;;;;;;6.78;69.03;100530.72;5262738;28;20040;-65
2023/03/17 02:15:41;;;;;;;7.60;3.97;;;;;;;6.85;68.65;100533.31;5262680;28;20040;-65
2023/03/17 02:18:14;;;;;;;8.77;3.30;;;;;;;6.88;68.37;100535.06;5263372;28;20033;-65
2023/03/17 02:20:45;;;;;;;6.65;3.65;;;;;;;6.94;67.93;100530.72;5262720;28;20122;-65
2023/03/17 02:23:23;;;;;;;8.07;3.67;;;;;;;6.98;67.96;100536.75;5263008;28;20136;-65
2023/03/17 02:25:54;;;;;;;10.02;3.83;;;;;;;7.01;67.61;100534.16;5245560;28;20035;-65
2023/03/17 02:28:29;;;;;;;6.93;4.00;;;;;;;7.05;67.68;100529.81;5262656;28;20115;-65
2023/03/17 02:31:01;;;;;;;9.25;3.92;;;;;;;7.05;67.64;100525.53;5263003;28;20060;-65
2023/03/17 02:33:33;;;;;;;7.55;3.35;;;;;;;7.06;67.49;100516.00;5262702;28;20553;-65
2023/03/17 02:36:04;;;;;;;8.87;3.97;;;;;;;7.10;67.07;100521.19;5261277;28;20033;-65
2023/03/17 02:38:36;;;;;;;10.73;4.40;;;;;;;7.10;67.20;100518.59;5262755;28;20101;-65
2023/03/17 02:41:08;;;;;;;9.33;3.80;;;;;;;7.11;67.17;100509.06;5262462;28;20037;-65
2023/03/17 02:43:41;;;;;;;11.43;4.13;;;;;;;7.11;67.02;100506.47;5262716;28;20270;-65
2023/03/17 02:46:12;;;;;;;7.63;3.70;;;;;;;7.14;67.10;100514.25;5262309;28;20029;-65
2023/03/17 02:48:45;;;;;;;6.20;3.23;;;;;;;7.11;66.90;100503.88;5261500;28;20111;-65
2023/03/17 02:51:16;;;;;;;8.10;3.78;;;;;;;7.08;67.23;100501.31;5262236;28;20033;-65
2023/03/17 02:53:47;;;;;;;8.23;3.93;;;;;;;7.08;67.21;100499.59;5264102;28;20036;-65
2023/03/17 02:56:19;;;;;;;10.80;3.57;;;;;;;7.11;66.60;100496.09;5266716;28;20072;-65
2023/03/17 02:58:50;;;;;;;7.13;3.07;;;;;;;7.08;66.76;100499.59;5267192;28;20029;-65
2023/03/17 03:01:22;;;;;;;11.60;4.27;;;;;;;7.08;67.10;100509.06;5266813;28;20029;-65
2023/03/17 03:03:53;;;;;;;8.27;3.50;;;;;;;7.06;67.18;100501.31;5266502;28;20037;-65
2023/03/17 03:06:25;;;;;;;9.83;3.70;;;;;;;7.07;66.92;100510.81;5266946;28;20037;-65
2023/03/17 03:08:56;;;;;;;8.50;3.77;;;;;;;7.05;67.21;100509.97;5266481;28;20440;-65
2023/03/17 03:11:28;;;;;;;9.70;4.00;;;;;;;7.12;66.21;100505.63;5266619;28;20087;-65
2023/03/17 03:14:00;;;;;;;5.70;3.17;;;;;;;7.16;66.14;100503.88;5266262;28;20025;-65
2023/03/17 03:16:31;;;;;;;6.83;3.10;;;;;;;7.20;65.42;100503.00;5266995;28;20488;-65
2023/03/17 03:19:03;;;;;;;8.10;3.67;;;;;;;7.18;65.95;100499.53;5266190;28;20039;-64
2023/03/17 03:21:35;;;;;;;8.93;3.95;;;;;;;7.23;65.22;100514.22;5266467;28;20487;-64
2023/03/17 03:24:08;;;;;;;7.70;3.08;;;;;;;7.20;65.25;100510.78;5265863;28;20139;-65
2023/03/17 03:26:40;;;;;;;8.00;3.20;;;;;;;7.20;65.54;100519.41;5266094;28;20028;-65
2023/03/17 03:29:11;;;;;;;10.60;3.88;;;;;;;7.25;64.90;100516.81;5265917;28;20037;-64
2023/03/17 03:31:43;;;;;;;6.63;3.10;;;;;;;7.28;64.71;100511.63;5265934;28;20379;-64
2023/03/17 03:34:15;;;;;;;8.33;3.47;;;;;;;7.27;64.94;100497.78;5264877;28;20040;-64
2023/03/17 03:36:46;;;;;;;10.27;3.83;;;;;;;7.29;64.36;100508.13;5265940;28;20105;-65
2023/03/17 03:39:17;;;;;;;7.67;3.10;;;;;;;7.30;64.27;100518.50;5266105;28;20036;-65
2023/03/17 03:41:49;;;;;;;8.17;3.83;;;;;;;7.33;64.17;100524.56;5265534;28;20036;-64
2023/03/17 03:44:20;;;;;;;9.20;3.33;;;;;;;7.35;63.91;100517.63;5265768;28;20071;-64
2023/03/17 03:46:52;;;;;;;8.13;3.73;;;;;;;7.33;64.03;100520.25;5266100;28;20076;-64
2023/03/17 03:49:23;;;;;;;8.67;3.60;;;;;;;7.30;63.96;100531.47;5265702;28;20127;-63
2023/03/17 03:51:54;;;;;;;8.37;3.27;;;;;;;7.26;64.27;100529.78;5265465;28;20040;-64
2023/03/17 03:54:26;;;;;;;6.97;3.33;;;;;;;7.25;64.37;100519.41;5265493;28;20033;-64
2023/03/17 03:56:57;;;;;;;13.50;3.87;;;;;;;7.22;64.53;100527.19;5247599;28;20443;-63
2023/03/17 03:59:29;;;;;;;11.37;4.13;;;;;;;7.19;64.30;100532.38;5265455;28;20457;-64
2023/03/17 04:02:00;;;;;;;13.27;4.03;;;;;;;7.20;64.60;100534.97;5266123;28;20040;-63
2023/03/17 04:04:32;;;;;;;9.07;4.10;;;;;;;7.19;64.34;100548.78;5263842;28;20040;-63
2023/03/17 04:07:03;;;;;;;13.67;4.43;;;;;;;7.18;64.56;100538.44;5264140;28;20029;-64
2023/03/17 04:09:36;;;;;;;12.60;4.00;;;;;;;7.12;64.61;100535.00;5265288;28;20039;-63
2023/03/17 04:12:08;;;;;;;10.88;3.60;;;;;;;7.11;65.08;100540.19;5265295;28;20111;-63
2023/03/17 04:14:39;;;;;;;11.05;4.22;;;;;;;7.10;65.03;100539.31;5265310;28;20128;-63
2023/03/17 04:17:11;;;;;;;9.27;3.53;;;;;;;7.06;65.25;100541.91;5265099;28;20081;-63
2023/03/17 04:19:43;;;;;;;9.98;4.38;;;;;;;7.04;65.21;100530.69;5265059;28;20463;-63
2023/03/17 04:22:15;;;;;;;13.23;3.90;;;;;;;7.03;65.57;100544.50;5263539;28;20056;-63
2023/03/17 04:24:46;;;;;;;13.25;4.80;;;;;;;7.04;65.20;100541.91;5265224;28;20421;-63
2023/03/17 04:27:18;;;;;;;13.30;4.20;;;;;;;7.00;65.79;100544.53;5263388;28;20068;-63
2023/03/17 04:29:49;;;;;;;15.50;4.30;;;;;;;6.99;65.68;100533.31;5265367;28;20417;-63
2023/03/17 04:32:20;;;;;;;12.63;4.47;;;;;;;7.02;65.34;100541.06;5264797;28;20067;-63
2023/03/17 04:34:53;;;;;;;9.95;4.10;;;;;;;7.00;65.61;100542.78;5264371;28;20048;-63
2023/03/17 04:37:25;;;;;;;12.80;3.80;;;;;;;7.01;65.61;100534.16;5264671;28;20036;-63
2023/03/17 04:39:56;;;;;;;16.43;4.33;;;;;;;6.98;65.84;100538.50;5264613;28;20025;-63
2023/03/17 04:42:27;;;;;;;10.23;4.07;;;;;;;6.97;65.81;100547.13;5264644;28;20072;-63
2023/03/17 04:44:59;;;;;;;12.33;4.40;;;;;;;6.94;66.21;100546.25;5264173;28;20094;-64
2023/03/17 04:47:30;;;;;;;11.27;3.83;;;;;;;6.95;66.09;100544.53;5264170;28;20439;-63
2023/03/17 04:50:03;;;;;;;12.37;3.93;;;;;;;6.98;65.85;100544.53;5264137;28;20147;-63
2023/03/17 04:52:35;;;;;;;10.73;4.05;;;;;;;6.97;66.05;100539.34;5264281;28;20294;-63
2023/03/17 04:55:08;;;;;;;11.07;3.85;;;;;;;6.92;66.61;100532.47;5264279;28;20032;-63
2023/03/17 04:57:39;;;;;;;12.55;4.68;;;;;;;6.93;66.67;100534.16;5264453;28;20083;-64
2023/03/17 05:00:11;;;;;;;11.40;4.60;;;;;;;6.95;66.62;100539.34;5264263;28;20037;-63
2023/03/17 05:02:43;;;;;;;11.98;4.20;;;;;;;6.95;66.34;100534.16;5264205;28;20099;-64
2023/03/17 05:05:14;;;;;;;11.70;3.90;;;;;;;6.94;66.67;100525.53;5263658;28;20033;-64
2023/03/17 05:07:46;;;;;;;13.43;3.60;;;;;;;6.94;66.50;100524.69;5264142;28;20071;-64
2023/03/17 05:10:17;;;;;;;10.30;3.57;;;;;;;6.95;66.76;100516.03;5262901;28;20128;-64
2023/03/17 05:12:49;;;;;;;11.27;3.77;;;;;;;6.96;67.10;100514.31;5263964;28;20044;-64
2023/03/17 05:15:20;;;;;;;11.50;4.80;;;;;;;6.99;66.94;100509.09;5263920;28;20029;-64
2023/03/17 05:17:51;;;;;;;9.43;3.60;;;;;;;6.96;66.97;100504.81;5263295;28;20033;-64
2023/03/17 05:20:23;;;;;;;12.40;3.60;;;;;;;6.97;66.96;100511.72;5264127;28;20057;-64
2023/03/17 05:22:54;;;;;;;6.83;3.27;;;;;;;6.99;67.03;100522.94;5263820;28;20024;-64
2023/03/17 05:25:26;;;;;;;11.97;3.67;;;;;;;7.02;67.03;100519.47;5264026;28;20473;-64
2023/03/17 05:27:57;;;;;;;14.47;3.60;;;;;;;7.01;66.88;100528.13;5263677;28;20029;-64
2023/03/17 05:30:29;;;;;;;9.40;4.03;;;;;;;7.04;66.70;100541.91;5263663;28;20029;-64
2023/03/17 05:33:00;;;;;;;9.97;4.00;;;;;;;7.03;67.01;100528.97;5264121;28;20115;-65
2023/03/17 05:35:31;;;;;;;9.13;3.43;;;;;;;7.05;66.86;100535.88;5263535;28;20033;-64
2023/03/17 05:38:03;;;;;;;13.10;3.93;;;;;;;7.02;66.81;100529.81;5246094;28;20044;-64
2023/03/17 05:40:35;;;;;;;14.80;4.30;;;;;;;7.05;66.90;100541.06;5263591;28;20075;-64
2023/03/17 05:43:07;;;;;;;10.38;3.33;;;;;;;7.07;66.83;100536.72;5263194;28;20051;-64
2023/03/17 05:45:39;;;;;;;12.37;3.73;;;;;;;7.03;67.26;100535.00;5263845;28;20037;-64
2023/03/17 05:48:12;;;;;;;11.02;3.47;;;;;;;7.01;66.89;100518.59;5262948;28;20110;-64
2023/03/17 05:50:43;;;;;;;13.70;3.67;;;;;;;7.02;67.12;100519.47;5262612;28;20080;-64
2023/03/17 05:53:15;;;;;;;14.33;3.60;;;;;;;7.03;67.09;100528.97;5263210;28;20072;-64
2023/03/17 05:55:46;;;;;;;15.40;4.23;;;;;;;7.00;67.12;100531.56;5263119;28;20071;-64
2023/03/17 05:58:18;;;;;;;9.93;3.27;;;;;;;6.94;67.39;100535.91;5262772;28;20036;-64
2023/03/17 06:00:49;;;;;;;11.00;3.80;;;;;;;6.91;67.49;100525.53;5263148;28;20033;-64
2023/03/17 06:03:21;;;;;;;9.90;3.00;;;;;;;6.93;67.58;100518.63;5262835;28;20124;-64
2023/03/17 06:05:53;;;;;;;9.87;3.77;;;;;;;6.91;67.63;100519.50;5262816;28;20033;-63
2023/03/17 06:08:24;;;;;;;9.27;3.40;;;;;;;6.90;67.88;100526.38;5262695;28;20033;-64
2023/03/17 06:10:56;;;;;;;5.93;2.97;;;;;;;6.90;67.78;100521.22;5262729;28;20227;-63
2023/03/17 06:13:27;;;;;;;7.47;3.13;;;;;;;6.91;68.13;100522.94;5263192;28;20033;-63
2023/03/17 06:15:58;;;;;;;10.57;4.70;;;;;;;6.93;68.03;100534.16;5263142;28;20029;-63
2023/03/17 06:18:30;;;;;;;10.20;3.70;;;;;;;7.00;67.66;100536.75;5262439;28;20235;-63
2023/03/17 06:21:01;;;;;;;13.30;4.17;;;;;;;7.04;67.42;100522.94;5263311;28;20163;-63
2023/03/17 06:23:33;;;;;;;8.93;3.10;;;;;;;7.09;67.32;100526.38;5262421;28;20036;-64
2023/03/17 06:26:05;;;;;;;10.43;3.47;;;;;;;7.14;67.59;100534.13;5261230;28;20077;-64
2023/03/17 06:28:37;;;;;;;12.85;3.35;;;;;;;7.19;67.13;100532.38;5261148;28;20057;-64
2023/03/17 06:31:08;;;;;;;12.87;4.17;;;;;;;7.25;67.14;100535.81;5262355;28;20060;-65
2023/03/17 06:33:40;;;;;;;16.50;3.77;;;;;;;7.30;66.85;100544.44;5261799;28;20116;-64
2023/03/17 06:36:12;;;;;;;7.40;3.30;;;;;;;7.33;66.70;100540.97;5261759;28;20362;-65
2023/03/17 06:38:44;;;;;;;10.65;3.53;;;;;;;7.39;66.52;100545.28;5262634;28;20627;-64
2023/03/17 06:41:16;;;;;;;7.85;3.30;;;;;;;7.43;66.55;100537.47;5261832;28;20041;-64
2023/03/17 06:43:47;;;;;;;10.53;3.97;;;;;;;7.46;66.83;100531.44;5262115;28;20369;-64
2023/03/17 06:46:18;;;;;;;11.50;3.63;;;;;;;7.52;66.56;100528.81;5262505;28;20452;-65
2023/03/17 06:48:50;;;;;;;12.53;3.40;;;;;;;7.56;66.81;100534.84;5261896;28;20163;-64
2023/03/17 06:51:21;;;;;;;10.43;3.50;;;;;;;7.64;66.05;100530.47;5261902;28;20041;-64
2023/03/17 06:53:52;;;;;;;15.13;4.30;;;;;;;7.69;66.02;100526.13;5262067;28;20116;-64
2023/03/17 06:56:24;;;;;;;11.07;3.97;;;;;;;7.75;66.00;100522.66;5244103;28;20542;-64
2023/03/17 06:58:55;;;;;;;15.33;4.10;;;;;;;7.83;65.73;100541.63;5262051;28;20163;-64
2023/03/17 07:01:27;;;;;;;11.43;3.63;;;;;;;7.90;65.12;100532.06;5261778;28;20079;-64
2023/03/17 07:03:59;;;;;;;13.23;3.03;;;;;;;7.97;64.93;100538.94;5261969;28;20021;-64
2023/03/17 07:06:32;;;;;;;18.33;4.05;;;;;;;7.99;65.22;100539.81;5262220;28;20796;-64
2023/03/17 07:09:04;;;;;;;10.52;3.40;;;;;;;8.08;64.76;100531.94;5261892;28;20090;-64
2023/03/17 07:11:36;;;;;;;10.95;3.75;;;;;;;8.15;64.83;100541.44;5262006;28;20033;-64
2023/03/17 07:14:07;;;;;;;9.10;4.10;;;;;;;8.23;64.61;100533.59;5244753;28;20147;-64
2023/03/17 07:16:39;;;;;;;11.13;3.40;;;;;;;8.32;64.28;100543.91;5261910;28;20111;-64
2023/03/17 07:19:10;;;;;;;11.77;3.37;;;;;;;8.40;63.72;100546.44;5262093;28;20066;-64
2023/03/17 07:21:42;;;;;;;12.43;3.90;;;;;;;8.46;63.41;100548.19;5261667;28;20029;-64
2023/03/17 07:24:13;;;;;;;9.30;3.80;;;;;;;8.49;62.76;100542.97;5261490;28;20139;-64
2023/03/17 07:26:45;;;;;;;7.57;3.03;;;;;;;8.60;63.10;100538.53;5261126;28;20057;-64
2023/03/17 07:29:17;;;;;;;8.97;3.20;;;;;;;8.68;62.79;100543.66;5260194;28;20470;-64
2023/03/17 07:31:48;;;;;;;8.80;2.92;;;;;;;8.79;62.27;100531.44;5261466;28;20025;-64
2023/03/17 07:34:21;;;;;;;11.63;3.90;;;;;;;8.90;62.74;100528.72;5261678;28;20105;-64
2023/03/17 07:36:52;;;;;;;14.60;3.28;;;;;;;8.99;62.02;100520.81;5262002;28;20028;-64
2023/03/17 07:39:23;;;;;;;10.53;3.67;;;;;;;9.06;61.31;100524.22;5261850;28;20025;-64
2023/03/17 07:41:55;;;;;;;9.23;3.57;;;;;;;9.13;61.54;100525.88;5265568;28;20024;-64
2023/03/17 07:44:27;;;;;;;9.17;3.60;;;;;;;9.17;61.09;100522.34;5265800;28;20342;-64
2023/03/17 07:46:59;;;;;;;11.88;3.80;;;;;;;9.22;60.79;100533.56;5265638;28;20055;-65
2023/03/17 07:49:31;;;;;;;10.07;3.17;;;;;;;9.31;60.84;100528.25;5265802;28;20136;-65
2023/03/17 07:52:02;;;;;;;10.07;3.17;;;;;;;9.37;59.86;100523.88;5263894;28;20044;-67
2023/03/17 07:54:35;;;;;;;7.17;3.10;;;;;;;9.43;59.90;100529.00;5265467;28;20021;-65
2023/03/17 07:57:06;;;;;;;11.82;3.80;;;;;;;9.47;59.47;100534.16;5264839;28;20036;-64
2023/03/17 07:59:38;;;;;;;13.63;3.57;;;;;;;9.53;59.52;100534.94;5265202;28;20061;-66
2023/03/17 08:02:15;;;;;;;11.82;3.97;;;;;;;9.59;59.20;100543.53;5265132;28;20036;-64
2023/03/17 08:04:46;;;;;;;10.18;3.40;;;;;;;9.72;58.87;100556.41;5265783;28;20017;-65
2023/03/17 08:07:18;;;;;;;12.47;3.57;;;;;;;9.80;58.55;100547.59;5264914;28;20112;-65
2023/03/17 08:09:49;;;;;;;7.90;3.03;;;;;;;9.91;58.73;100534.44;5265081;28;20029;-65
2023/03/17 08:12:21;;;;;;;11.43;3.50;;;;;;;10.00;57.71;100533.47;5264975;28;20036;-64
2023/03/17 08:14:54;;;;;;;13.43;4.17;;;;;;;10.05;57.22;100539.47;5264949;28;20029;-64
2023/03/17 08:17:26;;;;;;;8.00;3.30;;;;;;;10.23;57.11;100539.19;5264638;28;20029;-65
2023/03/17 08:19:57;;;;;;;6.18;2.92;;;;;;;10.33;56.42;100536.47;5264874;28;20033;-64
2023/03/17 08:22:29;;;;;;;12.17;3.60;;;;;;;10.40;55.80;100549.38;5264468;28;20044;-64
2023/03/17 08:25:01;;;;;;;9.27;3.57;;;;;;;10.49;55.92;100540.53;5264750;28;20386;-65
2023/03/17 08:27:32;;;;;;;14.47;3.70;;;;;;;10.71;56.02;100541.03;5264520;28;20357;-64
2023/03/17 08:30:05;;;;;;;8.90;3.70;;;;;;;10.87;55.52;100541.63;5264847;28;20029;-64
2023/03/17 08:32:36;;;;;;;10.43;3.92;;;;;;;11.00;55.00;100533.59;5264402;28;20028;-65
2023/03/17 08:35:14;;;;;;;17.10;3.33;;;;;;;11.13;54.55;100524.66;5264636;28;20025;-64
2023/03/17 08:37:46;;;;;;;12.70;4.00;;;;;;;11.20;54.21;100534.06;5264830;28;20406;-65
2023/03/17 08:40:18;;;;;;;8.93;3.60;;;;;;;11.19;53.97;100521.94;5264344;28;20109;-65
2023/03/17 08:42:50;;;;;;;6.15;3.20;;;;;;;11.28;53.82;100513.88;5264150;28;20040;-65
2023/03/17 08:45:22;;;;;;;7.93;3.50;;;;;;;11.32;54.12;100509.50;5264495;28;20067;-64
2023/03/17 08:47:53;;;;;;;7.47;3.00;;;;;;;11.31;53.33;100502.53;5264161;28;20104;-65
2023/03/17 08:50:25;;;;;;;10.13;3.43;;;;;;;11.48;53.12;100513.50;5265036;28;20128;-65
2023/03/17 08:52:56;;;;;;;5.67;2.97;;;;;;;11.58;52.91;100534.19;5263576;28;20104;-64
2023/03/17 08:55:27;;;;;;;7.80;3.03;;;;;;;11.81;53.39;100534.53;5264172;28;20068;-65
2023/03/17 08:58:00;;;;;;;6.90;3.10;;;;;;;11.93;52.68;100535.19;5262734;28;20037;-66
2023/03/17 09:00:31;;;;;;;7.00;2.92;;;;;;;12.19;51.99;100529.41;5264593;28;20088;-65
2023/03/17 09:03:03;;;;;;;9.17;4.07;;;;;;;12.28;51.50;100528.31;5263607;28;20037;-65
2023/03/17 09:05:36;;;;;;;9.32;3.38;;;;;;;12.29;51.56;100525.66;5264037;28;20453;-65
2023/03/17 09:08:08;;;;;;;8.27;3.20;;;;;;;12.33;51.33;100524.69;5263566;28;20108;-65
2023/03/17 09:10:39;;;;;;;6.33;2.47;;;;;;;12.34;51.80;100525.56;5263790;28;20479;-66
2023/03/17 09:13:11;;;;;;;5.77;3.07;;;;;;;12.40;51.87;100526.25;5264002;28;20090;-64
2023/03/17 09:15:42;;;;;;;10.57;3.47;;;;;;;12.34;51.72;100522.94;5246133;28;20043;-65
2023/03/17 09:18:14;;;;;;;9.03;3.20;;;;;;;12.37;52.09;100520.25;5263784;28;20029;-65
2023/03/17 09:20:45;;;;;;;6.20;2.97;;;;;;;12.52;51.99;100524.22;5263726;28;20029;-65
2023/03/17 09:23:17;;;;;;;12.50;3.77;;;;;;;12.61;51.32;100526.63;5262826;28;20511;-65
2023/03/17 09:25:48;;;;;;;11.23;3.50;;;;;;;12.85;51.21;100526.91;5245501;28;20456;-64
2023/03/17 09:28:20;;;;;;;9.07;3.03;;;;;;;13.03;50.71;100530.78;5263588;28;20027;-65
2023/03/17 09:31:00;;;;;;;7.40;3.30;;;;;;;12.91;50.97;100524.97;5262867;28;20029;-66
2023/03/17 09:33:31;;;;;;;11.35;3.17;;;;;;;12.96;51.13;100517.00;5263238;28;20024;-64
2023/03/17 09:36:03;;;;;;;5.33;2.87;;;;;;;12.92;51.33;100510.97;5262042;28;20029;-64
2023/03/17 09:38:36;;;;;;;7.60;2.73;;;;;;;13.07;51.15;100508.84;5262408;28;20025;-65
2023/03/17 09:41:22;;;;;;;7.18;3.40;;;;;;;13.12;51.13;100513.06;5263128;28;20033;-65
2023/03/17 09:44:16;;;;;;;5.53;3.05;;;;;;;13.21;51.17;100516.31;5263759;28;20036;-64
2023/03/17 09:47:01;;;;;;;7.40;3.13;;;;;;;13.11;51.61;100502.63;5262533;28;20059;-63
2023/03/17 09:49:57;;;;;;;6.38;2.58;;;;;;;13.22;51.99;100507.59;5263034;28;20504;-63
2023/03/17 09:52:33;;;;;;;5.88;2.80;;;;;;;13.25;51.70;100505.72;5262851;28;20415;-64
2023/03/17 09:55:07;;;;;;;6.35;3.25;;;;;;;13.34;50.68;100515.09;5262946;28;20075;-64
2023/03/17 09:57:39;;;;;;;7.00;3.00;;;;;;;13.25;51.37;100517.94;5262901;28;20437;-66
2023/03/17 10:00:15;;;;;;;7.18;3.47;;;;;;;13.07;52.09;100521.94;5262899;28;20087;-64
2023/03/17 10:02:46;;;;;;;6.97;2.95;;;;;;;13.08;52.80;100529.75;5262563;28;20511;-64
2023/03/17 10:05:24;;;;;;;5.93;3.57;;;;;;;12.97;52.38;100528.31;5262721;28;20052;-64
2023/03/17 10:08:22;;;;;;;5.90;3.25;;;;;;;13.01;53.00;100536.06;5262638;28;20372;-65
2023/03/17 10:11:15;;;;;;;8.18;3.10;;;;;;;13.10;53.04;100527.94;5263433;28;20395;-64
2023/03/17 10:14:03;;;;;;;9.52;2.75;;;;;;;13.20;54.04;100532.91;5262934;28;20025;-65
2023/03/17 10:16:53;;;;;;;7.70;3.60;;;;;;;13.26;53.34;100559.78;5262401;28;20025;-65
2023/03/17 10:19:27;;;;;;;6.68;2.90;;;;;;;13.29;54.00;100556.22;5262503;28;20173;-65
2023/03/17 10:22:09;;;;;;;7.38;3.22;;;;;;;13.44;53.52;100553.22;5262978;28;20115;-65
2023/03/17 10:24:46;;;;;;;8.40;3.35;;;;;;;13.89;54.02;100556.28;5262762;28;20083;-64
2023/03/17 10:27:18;;;;;;;7.35;3.08;;;;;;;14.40;51.93;100572.16;5262080;28;20029;-64
2023/03/17 10:29:49;;;;;;;7.70;3.40;;;;;;;14.62;50.36;100549.63;5262366;28;20452;-65
2023/03/17 10:32:21;;;;;;;7.40;2.57;;;;;;;14.77;50.31;100565.72;5262404;28;20086;-65
2023/03/17 10:34:54;;;;;;;7.53;3.27;;;;;;;14.79;49.34;100549.94;5262271;28;20113;-65
2023/03/17 10:37:28;;;;;;;7.28;3.03;;;;;;;14.85;49.07;100559.38;5244059;28;20033;-65
2023/03/17 10:39:59;;;;;;;7.65;3.60;;;;;;;14.83;48.81;100554.19;5262295;28;20028;-64
2023/03/17 10:42:34;;;;;;;7.33;2.87;;;;;;;15.04;48.29;100549.09;5262302;28;20043;-64
2023/03/17 10:45:27;;;;;;;12.93;3.83;;;;;;;16.06;48.66;100548.00;5262165;28;20037;-64
2023/03/17 10:48:01;;;;;;;10.55;3.00;;;;;;;16.57;45.13;100544.16;5262274;28;20056;-64
2023/03/17 10:50:36;;;;;;;10.55;3.78;;;;;;;16.92;44.32;100550.59;5261433;28;20041;-64
2023/03/17 10:53:26;;;;;;;5.10;2.85;;;;;;;17.56;42.81;100558.34;5261921;28;20163;-64
2023/03/17 10:56:06;;;;;;;5.53;3.10;;;;;;;17.95;42.20;100553.06;5262333;28;20068;-65
2023/03/17 10:58:44;;;;;;;5.43;2.72;;;;;;;18.35;40.98;100543.22;5261935;28;20527;-65
2023/03/17 11:01:20;;;;;;;5.45;3.08;;;;;;;18.75;40.16;100537.72;5262420;28;20441;-65
2023/03/17 11:03:52;;;;;;;5.80;2.70;;;;;;;18.29;40.23;100542.63;5261945;28;20120;-65
2023/03/17 11:06:40;;;;;;;4.80;2.97;;;;;;;18.51;41.77;100530.09;5262755;28;20056;-65
2023/03/17 11:09:17;;;;;;;5.72;2.92;;;;;;;18.29;43.53;100532.97;5261968;28;20037;-64
2023/03/17 11:11:59;;;;;;;8.40;2.97;;;;;;;18.88;39.56;100530.91;5261705;28;20036;-65
2023/03/17 11:14:30;;;;;;;11.37;3.60;;;;;;;19.41;39.69;100530.81;5262771;28;20025;-65
2023/03/17 11:17:20;;;;;;;9.07;3.22;;;;;;;20.07;39.05;100521.91;5264600;28;20029;-65
2023/03/17 11:20:04;;;;;;;6.78;3.35;;;;;;;20.61;38.71;100521.47;5265936;28;20033;-65
2023/03/17 11:22:40;;;;;;;7.10;2.75;;;;;;;21.23;36.84;100521.25;5265886;28;20032;-64
2023/03/17 11:25:16;;;;;;;9.38;3.58;;;;;;;21.46;34.87;100519.84;5265966;28;20100;-65
2023/03/17 11:28:15;;;;;;;4.93;2.78;;;;;;;21.68;35.91;100516.72;5265944;28;20071;-64
2023/03/17 11:31:07;;;;;;;7.38;3.88;;;;;;;21.36;34.93;100515.22;5266322;28;20028;-64
2023/03/17 11:34:04;;;;;;;5.43;3.13;;;;;;;21.68;35.49;100521.16;5265209;28;20075;-66
2023/03/17 11:36:51;;;;;;;7.10;3.63;;;;;;;22.38;34.46;100523.72;5266816;28;20052;-66
2023/03/17 11:39:31;;;;;;;10.23;3.45;;;;;;;21.92;33.79;100523.22;5266268;28;20029;-64
2023/03/17 11:43:02;;;;;;;8.65;3.63;;;;;;;23.56;34.31;100532.50;5266057;28;20029;-65
2023/03/17 11:45:46;;;;;;;66.20;7.43;;;;;;;23.34;32.07;100527.03;5208874;28;20543;-68
2023/03/17 11:48:40;;;;;;;9.30;3.53;;;;;;;23.22;32.14;100521.59;5221744;28;20052;-65
2023/03/17 11:51:47;;;;;;;9.90;3.60;;;;;;;23.81;31.92;100522.75;5263271;28;20052;-65
2023/03/17 11:54:19;;;;;;;92.47;7.78;;;;;;;23.47;31.71;100509.22;5230303;28;20392;-64
2023/03/17 11:56:53;;;;;;;619.30;64.33;;;;;;;23.39;33.32;100503.59;5265314;28;20037;-62
2023/03/17 11:59:28;;;;;;;173.63;25.75;;;;;;;22.33;35.31;100490.44;5265083;28;20029;-64